sensor_id;sensor_type;location;lat;lon;timestamp;pressure;altitude;pressure_sealevel;temperature;humidity
66880;BME280;53789;51.392;10.234;2023-04-03T00:00:11;99435.50;;;2.49;59.46
66880;BME280;53789;51.392;10.234;2023-04-03T00:00:32;99445.53;;;2.48;59.26
66880;BME280;53789;51.392;10.234;2023-04-03T00:00:52;99437.63;;;2.47;60.06
66880;BME280;53789;51.392;10.234;2023-04-03T00:01:14;99439.69;;;2.45;59.73
66880;BME280;53789;51.392;10.234;2023-04-03T00:01:34;99436.38;;;2.43;60.45
66880;BME280;53789;51.392;10.234;2023-04-03T00:01:55;99442.66;;;2.43;60.69
66880;BME280;53789;51.392;10.234;2023-04-03T00:02:15;99440.16;;;2.42;61.40
66880;BME280;53789;51.392;10.234;2023-04-03T00:02:35;99438.50;;;2.41;61.35
66880;BME280;53789;51.392;10.234;2023-04-03T00:02:55;99444.75;;;2.41;60.86
66880;BME280;53789;51.392;10.234;2023-04-03T00:03:18;99442.03;;;2.41;60.71
66880;BME280;53789;51.392;10.234;2023-04-03T00:03:39;99440.59;;;2.39;60.15
66880;BME280;53789;51.392;10.234;2023-04-03T00:03:59;99434.56;;;2.37;61.04
66880;BME280;53789;51.392;10.234;2023-04-03T00:04:19;99438.97;;;2.38;61.18
66880;BME280;53789;51.392;10.234;2023-04-03T00:04:40;99444.41;;;2.38;60.86
66880;BME280;53789;51.392;10.234;2023-04-03T00:05:00;99439.19;;;2.36;60.38
66880;BME280;53789;51.392;10.234;2023-04-03T00:05:20;99439.19;;;2.36;60.74
66880;BME280;53789;51.392;10.234;2023-04-03T00:05:41;99448.16;;;2.37;61.17
66880;BME280;53789;51.392;10.234;2023-04-03T00:06:02;99441.06;;;2.36;61.45
66880;BME280;53789;51.392;10.234;2023-04-03T00:06:23;99444.81;;;2.34;60.76
66880;BME280;53789;51.392;10.234;2023-04-03T00:06:43;99441.50;;;2.32;60.48
66880;BME280;53789;51.392;10.234;2023-04-03T00:07:03;99446.09;;;2.32;61.40
66880;BME280;53789;51.392;10.234;2023-04-03T00:07:24;99446.94;;;2.32;61.01
66880;BME280;53789;51.392;10.234;2023-04-03T00:07:44;99449.66;;;2.32;61.00
66880;BME280;53789;51.392;10.234;2023-04-03T00:08:04;99443.41;;;2.32;61.11
66880;BME280;53789;51.392;10.234;2023-04-03T00:08:25;99446.94;;;2.32;61.83
66880;BME280;53789;51.392;10.234;2023-04-03T00:08:45;99440.69;;;2.32;62.07
66880;BME280;53789;51.392;10.234;2023-04-03T00:09:05;99446.94;;;2.32;60.71
66880;BME280;53789;51.392;10.234;2023-04-03T00:09:25;99452.38;;;2.32;61.74
66880;BME280;53789;51.392;10.234;2023-04-03T00:09:46;99449.66;;;2.32;61.32
66880;BME280;53789;51.392;10.234;2023-04-03T00:10:07;99453.41;;;2.31;61.95
66880;BME280;53789;51.392;10.234;2023-04-03T00:10:27;99446.09;;;2.32;61.10
66880;BME280;53789;51.392;10.234;2023-04-03T00:10:48;99444.22;;;2.32;61.35
66880;BME280;53789;51.392;10.234;2023-04-03T00:11:10;99454.25;;;2.32;61.89
66880;BME280;53789;51.392;10.234;2023-04-03T00:11:30;99450.47;;;2.33;61.72
66880;BME280;53789;51.392;10.234;2023-04-03T00:11:50;99453.19;;;2.33;62.20
66880;BME280;53789;51.392;10.234;2023-04-03T00:12:11;99453.19;;;2.33;62.39
66880;BME280;53789;51.392;10.234;2023-04-03T00:12:31;99449.66;;;2.32;62.16
66880;BME280;53789;51.392;10.234;2023-04-03T00:12:51;99451.53;;;2.32;61.68
66880;BME280;53789;51.392;10.234;2023-04-03T00:13:12;99446.94;;;2.32;61.88
66880;BME280;53789;51.392;10.234;2023-04-03T00:13:33;99453.19;;;2.33;61.04
66880;BME280;53789;51.392;10.234;2023-04-03T00:13:54;99448.59;;;2.33;61.49
66880;BME280;53789;51.392;10.234;2023-04-03T00:14:14;99452.38;;;2.32;62.89
66880;BME280;53789;51.392;10.234;2023-04-03T00:14:34;99451.31;;;2.33;62.16
66880;BME280;53789;51.392;10.234;2023-04-03T00:14:54;99450.25;;;2.34;62.23
66880;BME280;53789;51.392;10.234;2023-04-03T00:15:15;99454.84;;;2.34;62.74
66880;BME280;53789;51.392;10.234;2023-04-03T00:15:36;99454.63;;;2.36;62.46
66880;BME280;53789;51.392;10.234;2023-04-03T00:15:56;99451.69;;;2.37;62.28
66880;BME280;53789;51.392;10.234;2023-04-03T00:16:17;99448.97;;;2.37;62.63
66880;BME280;53789;51.392;10.234;2023-04-03T00:16:38;99454.63;;;2.36;61.63
66880;BME280;53789;51.392;10.234;2023-04-03T00:16:58;99452.97;;;2.34;62.06
66880;BME280;53789;51.392;10.234;2023-04-03T00:17:18;99450.47;;;2.33;61.34
66880;BME280;53789;51.392;10.234;2023-04-03T00:17:38;99447.53;;;2.34;61.46
66880;BME280;53789;51.392;10.234;2023-04-03T00:17:59;99454.84;;;2.34;61.42
66880;BME280;53789;51.392;10.234;2023-04-03T00:18:19;99448.59;;;2.33;61.18
66880;BME280;53789;51.392;10.234;2023-04-03T00:18:40;99449.66;;;2.32;61.38
66880;BME280;53789;51.392;10.234;2023-04-03T00:19:00;99454.03;;;2.33;61.48
66880;BME280;53789;51.392;10.234;2023-04-03T00:19:20;99454.25;;;2.32;62.18
66880;BME280;53789;51.392;10.234;2023-04-03T00:19:41;99450.69;;;2.31;62.57
66880;BME280;53789;51.392;10.234;2023-04-03T00:20:02;99449.88;;;2.31;63.38
66880;BME280;53789;51.392;10.234;2023-04-03T00:20:23;99451.75;;;2.30;62.84
66880;BME280;53789;51.392;10.234;2023-04-03T00:20:43;99454.47;;;2.30;62.77
66880;BME280;53789;51.392;10.234;2023-04-03T00:21:05;99452.00;;;2.29;61.88
66880;BME280;53789;51.392;10.234;2023-04-03T00:21:25;99448.19;;;2.30;62.45
66880;BME280;53789;51.392;10.234;2023-04-03T00:21:46;99450.91;;;2.30;62.64
66880;BME280;53789;51.392;10.234;2023-04-03T00:22:06;99455.75;;;2.28;62.71
66880;BME280;53789;51.392;10.234;2023-04-03T00:22:26;99453.84;;;2.28;63.08
66880;BME280;53789;51.392;10.234;2023-04-03T00:22:46;99452.00;;;2.29;62.60
66880;BME280;53789;51.392;10.234;2023-04-03T00:23:07;99449.06;;;2.30;62.70
66880;BME280;53789;51.392;10.234;2023-04-03T00:23:27;99452.81;;;2.29;62.30
66880;BME280;53789;51.392;10.234;2023-04-03T00:23:47;99456.34;;;2.30;61.63
66880;BME280;53789;51.392;10.234;2023-04-03T00:24:08;99455.75;;;2.28;61.45
66880;BME280;53789;51.392;10.234;2023-04-03T00:24:28;99453.25;;;2.26;62.07
66880;BME280;53789;51.392;10.234;2023-04-03T00:24:48;99447.81;;;2.26;62.93
66880;BME280;53789;51.392;10.234;2023-04-03T00:25:09;99457.88;;;2.26;62.09
66880;BME280;53789;51.392;10.234;2023-04-03T00:25:29;99455.16;;;2.26;62.93
66880;BME280;53789;51.392;10.234;2023-04-03T00:25:50;99455.38;;;2.24;62.16
66880;BME280;53789;51.392;10.234;2023-04-03T00:26:11;99453.72;;;2.23;62.63
66880;BME280;53789;51.392;10.234;2023-04-03T00:26:32;99455.38;;;2.24;62.67
66880;BME280;53789;51.392;10.234;2023-04-03T00:26:52;99459.13;;;2.23;62.18
66880;BME280;53789;51.392;10.234;2023-04-03T00:27:12;99448.28;;;2.23;63.19
66880;BME280;53789;51.392;10.234;2023-04-03T00:27:33;99461.00;;;2.23;62.59
66880;BME280;53789;51.392;10.234;2023-04-03T00:27:53;99457.47;;;2.22;62.77
66880;BME280;53789;51.392;10.234;2023-04-03T00:28:13;99453.31;;;2.20;62.12
66880;BME280;53789;51.392;10.234;2023-04-03T00:28:34;99454.16;;;2.20;62.90
66880;BME280;53789;51.392;10.234;2023-04-03T00:28:54;99458.13;;;2.17;62.36
66880;BME280;53789;51.392;10.234;2023-04-03T00:29:14;99459.19;;;2.16;62.24
66880;BME280;53789;51.392;10.234;2023-04-03T00:29:35;99461.06;;;2.16;62.79
66880;BME280;53789;51.392;10.234;2023-04-03T00:29:55;99460.25;;;2.15;62.39
66880;BME280;53789;51.392;10.234;2023-04-03T00:30:17;99453.97;;;2.15;62.70
66880;BME280;53789;51.392;10.234;2023-04-03T00:30:38;99461.28;;;2.14;62.00
66880;BME280;53789;51.392;10.234;2023-04-03T00:30:58;99464.00;;;2.14;62.90
66880;BME280;53789;51.392;10.234;2023-04-03T00:31:19;99461.50;;;2.13;62.90
66880;BME280;53789;51.392;10.234;2023-04-03T00:31:39;99459.84;;;2.12;62.97
66880;BME280;53789;51.392;10.234;2023-04-03T00:32:00;99464.44;;;2.11;62.63
66880;BME280;53789;51.392;10.234;2023-04-03T00:32:20;99457.34;;;2.10;62.81
66880;BME280;53789;51.392;10.234;2023-04-03T00:32:41;99458.41;;;2.09;62.59
66880;BME280;53789;51.392;10.234;2023-04-03T00:33:01;99463.81;;;2.09;62.82
66880;BME280;53789;51.392;10.234;2023-04-03T00:33:22;99471.16;;;2.09;62.89
66880;BME280;53789;51.392;10.234;2023-04-03T00:33:42;99460.28;;;2.09;63.46
66880;BME280;53789;51.392;10.234;2023-04-03T00:34:03;99455.09;;;2.07;63.24
66880;BME280;53789;51.392;10.234;2023-04-03T00:34:23;99462.41;;;2.07;62.54
66880;BME280;53789;51.392;10.234;2023-04-03T00:34:43;99463.44;;;2.06;62.93
66880;BME280;53789;51.392;10.234;2023-04-03T00:35:04;99458.84;;;2.06;62.23
66880;BME280;53789;51.392;10.234;2023-04-03T00:35:24;99453.63;;;2.05;62.46
66880;BME280;53789;51.392;10.234;2023-04-03T00:35:45;99455.53;;;2.04;62.32
66880;BME280;53789;51.392;10.234;2023-04-03T00:36:07;99455.75;;;2.03;62.81
66880;BME280;53789;51.392;10.234;2023-04-03T00:36:27;99462.22;;;2.02;62.46
66880;BME280;53789;51.392;10.234;2023-04-03T00:36:47;99460.59;;;2.01;63.00
66880;BME280;53789;51.392;10.234;2023-04-03T00:37:08;99458.06;;;1.99;62.21
66880;BME280;53789;51.392;10.234;2023-04-03T00:37:28;99459.34;;;1.96;62.18
66880;BME280;53789;51.392;10.234;2023-04-03T00:37:51;99454.97;;;1.95;62.61
66880;BME280;53789;51.392;10.234;2023-04-03T00:38:11;99457.91;;;1.94;62.75
66880;BME280;53789;51.392;10.234;2023-04-03T00:38:32;99463.31;;;1.94;63.98
66880;BME280;53789;51.392;10.234;2023-04-03T00:38:52;99460.63;;;1.94;63.54
66880;BME280;53789;51.392;10.234;2023-04-03T00:39:12;99460.41;;;1.95;63.52
66880;BME280;53789;51.392;10.234;2023-04-03T00:39:33;99456.84;;;1.95;62.88
66880;BME280;53789;51.392;10.234;2023-04-03T00:39:53;99457.91;;;1.94;63.59
66880;BME280;53789;51.392;10.234;2023-04-03T00:40:15;99458.94;;;1.93;63.45
66880;BME280;53789;51.392;10.234;2023-04-03T00:40:39;99461.06;;;1.91;62.70
66880;BME280;53789;51.392;10.234;2023-04-03T00:41:01;99462.94;;;1.90;63.33
66880;BME280;53789;51.392;10.234;2023-04-03T00:41:22;99460.25;;;1.90;64.08
66880;BME280;53789;51.392;10.234;2023-04-03T00:41:42;99454.81;;;1.90;63.77
66880;BME280;53789;51.392;10.234;2023-04-03T00:42:02;99459.38;;;1.90;63.72
66880;BME280;53789;51.392;10.234;2023-04-03T00:42:23;99453.97;;;1.90;64.06
66880;BME280;53789;51.392;10.234;2023-04-03T00:42:46;99460.25;;;1.90;64.44
66880;BME280;53789;51.392;10.234;2023-04-03T00:43:20;99466.47;;;1.91;64.04
66880;BME280;53789;51.392;10.234;2023-04-03T00:43:41;99461.88;;;1.91;64.01
66880;BME280;53789;51.392;10.234;2023-04-03T00:45:31;99456.44;;;1.91;63.45
66880;BME280;53789;51.392;10.234;2023-04-03T00:45:54;99460.25;;;1.90;63.04
66880;BME280;53789;51.392;10.234;2023-04-03T00:46:15;99461.06;;;1.91;63.45
66880;BME280;53789;51.392;10.234;2023-04-03T00:46:35;99455.84;;;1.89;63.18
66880;BME280;53789;51.392;10.234;2023-04-03T00:46:55;99454.19;;;1.88;63.78
66880;BME280;53789;51.392;10.234;2023-04-03T00:47:17;99460.66;;;1.87;63.76
66880;BME280;53789;51.392;10.234;2023-04-03T00:47:39;99451.91;;;1.85;64.06
66880;BME280;53789;51.392;10.234;2023-04-03T00:48:04;99457.34;;;1.85;63.90
66880;BME280;53789;51.392;10.234;2023-04-03T00:48:26;99456.50;;;1.85;63.19
66880;BME280;53789;51.392;10.234;2023-04-03T00:48:49;99460.03;;;1.85;64.76
66880;BME280;53789;51.392;10.234;2023-04-03T00:49:09;99460.50;;;1.82;62.79
66880;BME280;53789;51.392;10.234;2023-04-03T00:49:30;99459.66;;;1.81;64.38
66880;BME280;53789;51.392;10.234;2023-04-03T00:49:52;99457.78;;;1.82;63.34
66880;BME280;53789;51.392;10.234;2023-04-03T00:50:13;99460.72;;;1.80;63.28
66880;BME280;53789;51.392;10.234;2023-04-03T00:50:37;99460.94;;;1.79;62.77
66880;BME280;53789;51.392;10.234;2023-04-03T00:50:59;99454.06;;;1.76;64.30
66880;BME280;53789;51.392;10.234;2023-04-03T00:51:23;99456.16;;;1.74;64.09
66880;BME280;53789;51.392;10.234;2023-04-03T00:51:45;99464.53;;;1.73;64.15
66880;BME280;53789;51.392;10.234;2023-04-03T00:52:11;99454.72;;;1.72;64.87
66880;BME280;53789;51.392;10.234;2023-04-03T00:52:33;99464.97;;;1.70;64.10
66880;BME280;53789;51.392;10.234;2023-04-03T00:52:55;99459.13;;;1.66;63.90
66880;BME280;53789;51.392;10.234;2023-04-03T00:53:23;99455.81;;;1.64;64.10
66880;BME280;53789;51.392;10.234;2023-04-03T00:54:02;99457.50;;;1.65;64.32
66880;BME280;53789;51.392;10.234;2023-04-03T00:54:25;99458.53;;;1.64;63.76
66880;BME280;53789;51.392;10.234;2023-04-03T00:54:48;99457.91;;;1.62;63.74
66880;BME280;53789;51.392;10.234;2023-04-03T00:55:10;99457.91;;;1.62;64.12
66880;BME280;53789;51.392;10.234;2023-04-03T00:55:31;99461.69;;;1.61;64.41
66880;BME280;53789;51.392;10.234;2023-04-03T00:55:55;99461.69;;;1.61;64.70
66880;BME280;53789;51.392;10.234;2023-04-03T00:56:19;99457.28;;;1.60;64.42
66880;BME280;53789;51.392;10.234;2023-04-03T00:56:41;99459.19;;;1.59;64.60
66880;BME280;53789;51.392;10.234;2023-04-03T00:57:03;99457.50;;;1.58;64.38
66880;BME280;53789;51.392;10.234;2023-04-03T00:57:26;99456.91;;;1.56;64.54
66880;BME280;53789;51.392;10.234;2023-04-03T00:57:48;99464.19;;;1.56;65.26
66880;BME280;53789;51.392;10.234;2023-04-03T00:58:10;99463.38;;;1.55;64.54
66880;BME280;53789;51.392;10.234;2023-04-03T00:58:56;99463.38;;;1.55;64.84
66880;BME280;53789;51.392;10.234;2023-04-03T00:59:24;99459.00;;;1.54;64.84
66880;BME280;53789;51.392;10.234;2023-04-03T00:59:53;99454.63;;;1.53;65.57
66880;BME280;53789;51.392;10.234;2023-04-03T01:00:19;99465.25;;;1.55;65.27
66880;BME280;53789;51.392;10.234;2023-04-03T01:00:46;99459.84;;;1.55;65.08
66880;BME280;53789;51.392;10.234;2023-04-03T01:01:12;99458.78;;;1.56;65.70
66880;BME280;53789;51.392;10.234;2023-04-03T01:01:35;99459.63;;;1.56;65.43
66880;BME280;53789;51.392;10.234;2023-04-03T01:01:56;99462.13;;;1.58;64.54
66880;BME280;53789;51.392;10.234;2023-04-03T01:02:17;99463.97;;;1.57;66.09
66880;BME280;53789;51.392;10.234;2023-04-03T01:02:38;99461.03;;;1.59;65.32
66880;BME280;53789;51.392;10.234;2023-04-03T01:02:59;99459.19;;;1.59;65.29
66880;BME280;53789;51.392;10.234;2023-04-03T01:03:19;99456.69;;;1.58;65.52
66880;BME280;53789;51.392;10.234;2023-04-03T01:03:39;99458.34;;;1.59;65.52
66880;BME280;53789;51.392;10.234;2023-04-03T01:04:01;99461.69;;;1.61;66.49
66880;BME280;53789;51.392;10.234;2023-04-03T01:04:34;99464.38;;;1.61;64.88
66880;BME280;53789;51.392;10.234;2023-04-03T01:04:55;99457.28;;;1.60;64.00
66880;BME280;53789;51.392;10.234;2023-04-03T01:05:16;99460.81;;;1.60;64.25
66880;BME280;53789;51.392;10.234;2023-04-03T01:05:38;99456.47;;;1.59;63.98
66880;BME280;53789;51.392;10.234;2023-04-03T01:05:59;99460.00;;;1.60;65.07
66880;BME280;53789;51.392;10.234;2023-04-03T01:06:25;99464.38;;;1.61;65.02
66880;BME280;53789;51.392;10.234;2023-04-03T01:06:46;99461.91;;;1.59;65.13
66880;BME280;53789;51.392;10.234;2023-04-03T01:07:26;99460.22;;;1.58;64.67
66880;BME280;53789;51.392;10.234;2023-04-03T01:07:50;99460.22;;;1.58;65.33
66880;BME280;53789;51.392;10.234;2023-04-03T01:08:11;99462.94;;;1.58;64.70
66880;BME280;53789;51.392;10.234;2023-04-03T01:08:32;99467.31;;;1.59;64.42
66880;BME280;53789;51.392;10.234;2023-04-03T01:08:53;99454.81;;;1.58;64.46
66880;BME280;53789;51.392;10.234;2023-04-03T01:09:14;99457.50;;;1.58;64.10
66880;BME280;53789;51.392;10.234;2023-04-03T01:09:35;99452.09;;;1.58;65.12
66880;BME280;53789;51.392;10.234;2023-04-03T01:09:58;99462.13;;;1.58;64.95
66880;BME280;53789;51.392;10.234;2023-04-03T01:10:20;99456.91;;;1.56;66.10
66880;BME280;53789;51.392;10.234;2023-04-03T01:10:41;99460.44;;;1.57;65.35
66880;BME280;53789;51.392;10.234;2023-04-03T01:11:02;99462.34;;;1.56;65.77
66880;BME280;53789;51.392;10.234;2023-04-03T01:11:22;99454.19;;;1.56;65.12
66880;BME280;53789;51.392;10.234;2023-04-03T01:11:42;99456.91;;;1.56;65.85
66880;BME280;53789;51.392;10.234;2023-04-03T01:12:37;99451.72;;;1.55;65.59
66880;BME280;53789;51.392;10.234;2023-04-03T01:12:56;99456.91;;;1.56;65.07
66880;BME280;53789;51.392;10.234;2023-04-03T01:13:42;99461.47;;;1.56;65.43
66880;BME280;53789;51.392;10.234;2023-04-03T01:14:02;99459.63;;;1.56;64.83
66880;BME280;53789;51.392;10.234;2023-04-03T01:14:22;99461.47;;;1.56;64.49
66880;BME280;53789;51.392;10.234;2023-04-03T01:14:44;99462.34;;;1.56;65.44
66880;BME280;53789;51.392;10.234;2023-04-03T01:15:11;99463.38;;;1.55;65.62
66880;BME280;53789;51.392;10.234;2023-04-03T01:15:31;99459.63;;;1.56;65.27
66880;BME280;53789;51.392;10.234;2023-04-03T01:15:52;99456.91;;;1.56;65.69
66880;BME280;53789;51.392;10.234;2023-04-03T01:16:12;99453.34;;;1.56;65.83
66880;BME280;53789;51.392;10.234;2023-04-03T01:16:33;99457.13;;;1.55;65.49
66880;BME280;53789;51.392;10.234;2023-04-03T01:16:54;99456.91;;;1.56;66.10
66880;BME280;53789;51.392;10.234;2023-04-03T01:17:42;99453.34;;;1.56;64.91
66880;BME280;53789;51.392;10.234;2023-04-03T01:18:02;99455.25;;;1.55;65.71
66880;BME280;53789;51.392;10.234;2023-04-03T01:18:24;99450.63;;;1.56;65.56
66880;BME280;53789;51.392;10.234;2023-04-03T01:18:45;99456.69;;;1.58;65.30
66880;BME280;53789;51.392;10.234;2023-04-03T01:19:15;99457.72;;;1.57;65.07
66880;BME280;53789;51.392;10.234;2023-04-03T01:19:44;99457.50;;;1.58;65.59
66880;BME280;53789;51.392;10.234;2023-04-03T01:21:13;99456.91;;;1.56;64.05
66880;BME280;53789;51.392;10.234;2023-04-03T01:21:52;99459.63;;;1.56;64.32
66880;BME280;53789;51.392;10.234;2023-04-03T01:22:27;99457.94;;;1.55;64.66
66880;BME280;53789;51.392;10.234;2023-04-03T01:24:25;99463.81;;;1.52;65.43
66880;BME280;53789;51.392;10.234;2023-04-03T01:24:48;99463.19;;;1.50;64.13
66880;BME280;53789;51.392;10.234;2023-04-03T01:25:08;99466.97;;;1.49;64.76
66880;BME280;53789;51.392;10.234;2023-04-03T01:25:29;99457.16;;;1.48;64.70
66880;BME280;53789;51.392;10.234;2023-04-03T01:25:53;99465.28;;;1.48;64.71
66880;BME280;53789;51.392;10.234;2023-04-03T01:26:13;99463.63;;;1.47;64.84
66880;BME280;53789;51.392;10.234;2023-04-03T01:26:34;99459.03;;;1.48;66.03
66880;BME280;53789;51.392;10.234;2023-04-03T01:26:54;99460.09;;;1.46;64.93
66880;BME280;53789;51.392;10.234;2023-04-03T01:27:15;99458.41;;;1.45;65.51
66880;BME280;53789;51.392;10.234;2023-04-03T01:27:35;99460.53;;;1.43;65.59
66880;BME280;53789;51.392;10.234;2023-04-03T01:27:55;99464.06;;;1.44;64.95
66880;BME280;53789;51.392;10.234;2023-04-03T01:28:22;99459.91;;;1.41;63.89
66880;BME280;53789;51.392;10.234;2023-04-03T01:28:43;99460.13;;;1.40;64.37
66880;BME280;53789;51.392;10.234;2023-04-03T01:29:04;99464.72;;;1.39;64.76
66880;BME280;53789;51.392;10.234;2023-04-03T01:29:24;99466.59;;;1.39;64.12
66880;BME280;53789;51.392;10.234;2023-04-03T01:29:45;99470.34;;;1.38;64.24
66880;BME280;53789;51.392;10.234;2023-04-03T01:30:06;99468.88;;;1.35;64.68
66880;BME280;53789;51.392;10.234;2023-04-03T01:30:33;99466.19;;;1.35;64.38
66880;BME280;53789;51.392;10.234;2023-04-03T01:31:50;99466.41;;;1.34;65.56
66880;BME280;53789;51.392;10.234;2023-04-03T01:32:11;99469.09;;;1.34;65.86
66880;BME280;53789;51.392;10.234;2023-04-03T01:32:31;99471.00;;;1.33;65.33
66880;BME280;53789;51.392;10.234;2023-04-03T01:32:51;99470.19;;;1.33;64.97
66880;BME280;53789;51.392;10.234;2023-04-03T01:33:12;99472.88;;;1.33;65.59
66880;BME280;53789;51.392;10.234;2023-04-03T01:33:32;99471.00;;;1.33;65.51
66880;BME280;53789;51.392;10.234;2023-04-03T01:33:54;99471.22;;;1.32;64.93
66880;BME280;53789;51.392;10.234;2023-04-03T01:34:14;99474.16;;;1.30;66.20
66880;BME280;53789;51.392;10.234;2023-04-03T01:34:34;99473.31;;;1.30;65.55
66880;BME280;53789;51.392;10.234;2023-04-03T01:34:55;99467.06;;;1.29;65.62
66880;BME280;53789;51.392;10.234;2023-04-03T01:35:15;99475.19;;;1.29;66.38
66880;BME280;53789;51.392;10.234;2023-04-03T01:35:35;99474.34;;;1.28;65.21
66880;BME280;53789;51.392;10.234;2023-04-03T01:35:56;99467.28;;;1.27;65.02
66880;BME280;53789;51.392;10.234;2023-04-03T01:36:24;99469.97;;;1.27;65.47
66880;BME280;53789;51.392;10.234;2023-04-03T01:36:44;99468.31;;;1.26;65.69
66880;BME280;53789;51.392;10.234;2023-04-03T01:37:05;99472.69;;;1.27;65.49
66880;BME280;53789;51.392;10.234;2023-04-03T01:37:25;99469.16;;;1.27;64.96
66880;BME280;53789;51.392;10.234;2023-04-03T01:37:45;99472.09;;;1.25;65.40
66880;BME280;53789;51.392;10.234;2023-04-03T01:38:05;99471.88;;;1.27;65.85
66880;BME280;53789;51.392;10.234;2023-04-03T01:38:26;99473.72;;;1.26;65.57
66880;BME280;53789;51.392;10.234;2023-04-03T01:38:47;99470.19;;;1.26;66.28
66880;BME280;53789;51.392;10.234;2023-04-03T01:39:07;99468.31;;;1.26;65.90
66880;BME280;53789;51.392;10.234;2023-04-03T01:39:27;99473.94;;;1.25;64.16
66880;BME280;53789;51.392;10.234;2023-04-03T01:39:48;99468.75;;;1.23;64.32
66880;BME280;53789;51.392;10.234;2023-04-03T01:40:08;99469.81;;;1.22;63.89
66880;BME280;53789;51.392;10.234;2023-04-03T01:40:29;99470.03;;;1.21;64.81
66880;BME280;53789;51.392;10.234;2023-04-03T01:40:49;99468.34;;;1.20;65.32
66880;BME280;53789;51.392;10.234;2023-04-03T01:41:09;99469.16;;;1.20;65.54
66880;BME280;53789;51.392;10.234;2023-04-03T01:41:30;99471.28;;;1.18;65.72
66880;BME280;53789;51.392;10.234;2023-04-03T01:41:51;99475.03;;;1.17;64.91
66880;BME280;53789;51.392;10.234;2023-04-03T01:42:11;99472.31;;;1.17;65.67
66880;BME280;53789;51.392;10.234;2023-04-03T01:42:32;99473.16;;;1.18;66.31
66880;BME280;53789;51.392;10.234;2023-04-03T01:42:52;99475.03;;;1.17;66.45
66880;BME280;53789;51.392;10.234;2023-04-03T01:43:12;99467.97;;;1.16;65.78
66880;BME280;53789;51.392;10.234;2023-04-03T01:43:33;99476.91;;;1.17;65.23
66880;BME280;53789;51.392;10.234;2023-04-03T01:43:53;99471.72;;;1.15;65.67
66880;BME280;53789;51.392;10.234;2023-04-03T01:44:14;99470.66;;;1.16;65.97
66880;BME280;53789;51.392;10.234;2023-04-03T01:44:35;99469.81;;;1.16;65.17
66880;BME280;53789;51.392;10.234;2023-04-03T01:44:55;99469.81;;;1.16;65.54
66880;BME280;53789;51.392;10.234;2023-04-03T01:45:15;99475.88;;;1.18;66.96
66880;BME280;53789;51.392;10.234;2023-04-03T01:45:36;99472.31;;;1.17;65.50
66880;BME280;53789;51.392;10.234;2023-04-03T01:45:56;99478.59;;;1.18;65.60
66880;BME280;53789;51.392;10.234;2023-04-03T01:46:17;99471.28;;;1.18;66.38
66880;BME280;53789;51.392;10.234;2023-04-03T01:46:38;99472.31;;;1.17;66.00
66880;BME280;53789;51.392;10.234;2023-04-03T01:46:58;99475.88;;;1.18;66.04
66880;BME280;53789;51.392;10.234;2023-04-03T01:47:19;99475.66;;;1.19;66.14
66880;BME280;53789;51.392;10.234;2023-04-03T01:47:39;99470.25;;;1.19;65.36
66880;BME280;53789;51.392;10.234;2023-04-03T01:48:00;99472.94;;;1.19;66.12
66880;BME280;53789;51.392;10.234;2023-04-03T01:48:20;99480.00;;;1.20;65.82
66880;BME280;53789;51.392;10.234;2023-04-03T01:48:41;99477.31;;;1.20;65.37
66880;BME280;53789;51.392;10.234;2023-04-03T01:49:01;99483.78;;;1.19;66.00
66880;BME280;53789;51.392;10.234;2023-04-03T01:49:22;99480.00;;;1.20;65.44
66880;BME280;53789;51.392;10.234;2023-04-03T01:49:42;99466.69;;;1.19;66.29
66880;BME280;53789;51.392;10.234;2023-04-03T01:50:03;99471.88;;;1.20;65.90
66880;BME280;53789;51.392;10.234;2023-04-03T01:50:23;99473.56;;;1.21;65.12
66880;BME280;53789;51.392;10.234;2023-04-03T01:50:43;99469.38;;;1.19;66.27
66880;BME280;53789;51.392;10.234;2023-04-03T01:51:04;99476.47;;;1.20;65.91
66880;BME280;53789;51.392;10.234;2023-04-03T01:51:24;99478.16;;;1.21;66.62
66880;BME280;53789;51.392;10.234;2023-04-03T01:51:45;99470.84;;;1.21;66.23
66880;BME280;53789;51.392;10.234;2023-04-03T01:52:05;99468.94;;;1.22;66.43
66880;BME280;53789;51.392;10.234;2023-04-03T01:52:25;99475.22;;;1.22;66.88
66880;BME280;53789;51.392;10.234;2023-04-03T01:52:46;99479.59;;;1.23;66.60
66880;BME280;53789;51.392;10.234;2023-04-03T01:53:06;99469.59;;;1.24;65.58
66880;BME280;53789;51.392;10.234;2023-04-03T01:53:26;99471.44;;;1.23;66.11
66880;BME280;53789;51.392;10.234;2023-04-03T01:53:47;99472.31;;;1.24;65.49
66880;BME280;53789;51.392;10.234;2023-04-03T01:54:10;99473.13;;;1.24;65.85
66880;BME280;53789;51.392;10.234;2023-04-03T01:54:30;99467.69;;;1.24;65.28
66880;BME280;53789;51.392;10.234;2023-04-03T01:54:50;99469.38;;;1.25;64.69
66880;BME280;53789;51.392;10.234;2023-04-03T01:55:11;99476.66;;;1.25;65.20
66880;BME280;53789;51.392;10.234;2023-04-03T01:55:31;99476.88;;;1.23;66.19
66880;BME280;53789;51.392;10.234;2023-04-03T01:55:51;99478.53;;;1.24;66.15
66880;BME280;53789;51.392;10.234;2023-04-03T01:56:12;99475.84;;;1.24;66.61
66880;BME280;53789;51.392;10.234;2023-04-03T01:56:32;99487.50;;;1.25;65.08
66880;BME280;53789;51.392;10.234;2023-04-03T01:56:52;99474.16;;;1.23;66.13
66880;BME280;53789;51.392;10.234;2023-04-03T01:57:13;99475.84;;;1.24;65.30
66880;BME280;53789;51.392;10.234;2023-04-03T01:57:33;99482.94;;;1.25;65.88
66880;BME280;53789;51.392;10.234;2023-04-03T01:57:53;99476.66;;;1.25;65.72
66880;BME280;53789;51.392;10.234;2023-04-03T01:58:14;99481.25;;;1.24;66.26
66880;BME280;53789;51.392;10.234;2023-04-03T01:58:34;99476.88;;;1.23;65.30
66880;BME280;53789;51.392;10.234;2023-04-03T01:58:54;99479.38;;;1.25;66.04
66880;BME280;53789;51.392;10.234;2023-04-03T01:59:15;99477.72;;;1.24;66.18
66880;BME280;53789;51.392;10.234;2023-04-03T01:59:35;99485.00;;;1.23;65.44
66880;BME280;53789;51.392;10.234;2023-04-03T01:59:55;99478.75;;;1.23;65.91
66880;BME280;53789;51.392;10.234;2023-04-03T02:00:16;99480.00;;;1.27;66.17